Alpental, Washington
Current Conditions -  °F | °C
As of 5:53 AM on Saturday 25 Oct 2014 (Local Time) from KRNT Reporting Station
Few Clouds Few Clouds  
Wind Chill: 11°   Ceiling: Unl
Heat Index: 11°   Visibility: 10mi
Dew Point: 10°   Wind: 3mph
Humidity: 96%   Direction: NA
Pressure: 29.48"   Gusts: NA
Location:  47.4076°N, 121.414°W
Report Text: KRNT 251253Z AUTO VRB03KT 10SM FEW007 11/10 A2948 RMK AO2 SLP987 T01060100
Loading
Personal Weather Stations






























Interactive Weather Map
Tropical Storm Tracking
New forecast layout! Learn more

10-Day Weather Forecast

Advertisements
Track Severe Weather on mobile